<?xml version="1.0" encoding="UTF-8" standalone="no" ?>
<gpx xmlns="http://www.topografix.com/GPX/1/1" xmlns:xsi="http://www.w3.org/2001/XMLSchema-instance" xsi:schemaLocation="http://www.topografix.com/GPX/1/1 http://www.topografix.com/GPX/1/1/gpx.xsd" version="1.1" creator="VisuGPX - https://www.visugpx.com">
  <metadata>
    <name>Sentiers de Peygros</name>
    <desc><![CDATA[1 Boucle facile : accessible à tous.
2, 3 et 4 : singles techniques.]]></desc>
  </metadata>
  <wpt lat="43.60058" lon="6.91069">
    <ele>77</ele>
    <name><![CDATA[Départ]]></name>
  </wpt>
  <wpt lat="43.61564" lon="6.90198">
    <ele>283</ele>
    <name><![CDATA[Sommet]]></name>
  </wpt>
  <trk>
    <name><![CDATA[sentier sud]]></name>
    <trkseg>
      <trkpt lat="43.61588" lon="6.90218">
        <ele>294.3007813</ele>
        <time>2011-04-06T13:18:37Z</time>
      </trkpt>
      <trkpt lat="43.61571" lon="6.90214">
        <ele>295.7426758</ele>
        <time>2011-04-06T13:21:01Z</time>
      </trkpt>
      <trkpt lat="43.61582" lon="6.90206">
        <ele>294.3007813</ele>
        <time>2011-04-06T13:21:10Z</time>
      </trkpt>
      <trkpt lat="43.61594" lon="6.90274">
        <ele>289.4941406</ele>
        <time>2011-04-06T13:21:24Z</time>
      </trkpt>
      <trkpt lat="43.6161" lon="6.90276">
        <ele>289.0135498</ele>
        <time>2011-04-06T13:21:28Z</time>
      </trkpt>
      <trkpt lat="43.61663" lon="6.90216">
        <ele>283.2456055</ele>
        <time>2011-04-06T13:21:41Z</time>
      </trkpt>
      <trkpt lat="43.61729" lon="6.90216">
        <ele>277.958252</ele>
        <time>2011-04-06T13:21:55Z</time>
      </trkpt>
      <trkpt lat="43.61743" lon="6.90183">
        <ele>276.9970703</ele>
        <time>2011-04-06T13:22:02Z</time>
      </trkpt>
      <trkpt lat="43.61705" lon="6.90168">
        <ele>272.6711426</ele>
        <time>2011-04-06T13:22:17Z</time>
      </trkpt>
      <trkpt lat="43.61614" lon="6.90063">
        <ele>253.4447021</ele>
        <time>2011-04-06T13:23:44Z</time>
      </trkpt>
      <trkpt lat="43.61555" lon="6.90053">
        <ele>251.0413818</ele>
        <time>2011-04-06T13:23:58Z</time>
      </trkpt>
      <trkpt lat="43.61463" lon="6.9007">
        <ele>234.2183838</ele>
        <time>2011-04-06T13:24:28Z</time>
      </trkpt>
      <trkpt lat="43.61451" lon="6.90068">
        <ele>231.3343506</ele>
        <time>2011-04-06T13:24:32Z</time>
      </trkpt>
      <trkpt lat="43.61386" lon="6.90036">
        <ele>216.9146729</ele>
        <time>2011-04-06T13:25:15Z</time>
      </trkpt>
      <trkpt lat="43.61396" lon="6.90038">
        <ele>215.4726563</ele>
        <time>2011-04-06T13:25:21Z</time>
      </trkpt>
      <trkpt lat="43.61381" lon="6.8999">
        <ele>211.1467285</ele>
        <time>2011-04-06T13:25:27Z</time>
      </trkpt>
      <trkpt lat="43.61385" lon="6.89976">
        <ele>207.3013916</ele>
        <time>2011-04-06T13:25:35Z</time>
      </trkpt>
      <trkpt lat="43.61328" lon="6.89954">
        <ele>194.8043213</ele>
        <time>2011-04-06T13:25:59Z</time>
      </trkpt>
      <trkpt lat="43.61278" lon="6.89955">
        <ele>185.6717529</ele>
        <time>2011-04-06T13:26:16Z</time>
      </trkpt>
      <trkpt lat="43.61229" lon="6.89997">
        <ele>174.6165771</ele>
        <time>2011-04-06T13:26:34Z</time>
      </trkpt>
    </trkseg>
  </trk>
</gpx>